Waskaganish, Canada
Current Conditions -  °F | °C
As of 5:00 AM on Thursday 18 Dec 2014 (Local Time) from CYMO Reporting Station
Clear Clear  
Wind Chill: -16°   Ceiling: Unl
Heat Index: -4°   Visibility: 9mi
Dew Point: -8°   Wind: 6mph
Humidity: 85%   Direction: 260°W
Pressure: 30.25"   Gusts: NA
Location:  51.49°N, 78.75°W
Report Text: CYMO 181000Z AUTO 26005KT 9SM CLR M20/M22 A3025 RMK SLP244
Loading
Personal Weather Stations






























Interactive Weather Map New forecast layout! Learn more

10-Day Weather Forecast

Advertisements
Track Severe Weather on mobile